sensor_id;sensor_type;location;lat;lon;timestamp;temperature;humidity
18807;DHT22;9531;52.030;4.380;2023-03-09T00:01:19;1.70;99.90
18807;DHT22;9531;52.030;4.380;2023-03-09T00:03:47;1.70;99.90
18807;DHT22;9531;52.030;4.380;2023-03-09T00:06:15;1.70;99.90
18807;DHT22;9531;52.030;4.380;2023-03-09T00:08:45;1.70;99.90
18807;DHT22;9531;52.030;4.380;2023-03-09T00:11:16;1.70;99.90
18807;DHT22;9531;52.030;4.380;2023-03-09T00:13:47;1.70;99.90
18807;DHT22;9531;52.030;4.380;2023-03-09T00:16:17;1.80;99.90
18807;DHT22;9531;52.030;4.380;2023-03-09T00:18:46;1.70;99.90
18807;DHT22;9531;52.030;4.380;2023-03-09T00:21:14;1.70;99.90
18807;DHT22;9531;52.030;4.380;2023-03-09T00:23:54;1.70;99.90
18807;DHT22;9531;52.030;4.380;2023-03-09T00:26:21;1.70;99.90
18807;DHT22;9531;52.030;4.380;2023-03-09T00:28:49;1.70;99.90
18807;DHT22;9531;52.030;4.380;2023-03-09T00:31:16;1.80;99.90
18807;DHT22;9531;52.030;4.380;2023-03-09T00:33:46;1.70;99.90
18807;DHT22;9531;52.030;4.380;2023-03-09T00:36:15;1.70;99.90
18807;DHT22;9531;52.030;4.380;2023-03-09T00:38:43;1.70;99.90
18807;DHT22;9531;52.030;4.380;2023-03-09T00:41:10;1.70;99.90
18807;DHT22;9531;52.030;4.380;2023-03-09T00:43:37;1.70;99.90
18807;DHT22;9531;52.030;4.380;2023-03-09T00:46:04;1.70;99.90
18807;DHT22;9531;52.030;4.380;2023-03-09T00:48:31;1.70;99.90
18807;DHT22;9531;52.030;4.380;2023-03-09T00:50:58;1.70;99.90
18807;DHT22;9531;52.030;4.380;2023-03-09T00:53:28;1.70;99.90
18807;DHT22;9531;52.030;4.380;2023-03-09T00:55:55;1.70;99.90
18807;DHT22;9531;52.030;4.380;2023-03-09T00:58:22;1.70;99.90
18807;DHT22;9531;52.030;4.380;2023-03-09T01:00:49;1.70;99.90
18807;DHT22;9531;52.030;4.380;2023-03-09T01:03:16;1.70;99.90
18807;DHT22;9531;52.030;4.380;2023-03-09T01:05:43;1.70;99.90
18807;DHT22;9531;52.030;4.380;2023-03-09T01:08:10;1.70;99.90
18807;DHT22;9531;52.030;4.380;2023-03-09T01:10:39;1.70;99.90
18807;DHT22;9531;52.030;4.380;2023-03-09T01:13:07;1.70;99.90
18807;DHT22;9531;52.030;4.380;2023-03-09T01:15:36;1.70;99.90
18807;DHT22;9531;52.030;4.380;2023-03-09T01:18:04;1.70;99.90
18807;DHT22;9531;52.030;4.380;2023-03-09T01:20:31;1.70;99.90
18807;DHT22;9531;52.030;4.380;2023-03-09T01:22:58;1.70;99.90
18807;DHT22;9531;52.030;4.380;2023-03-09T01:25:25;1.70;99.90
18807;DHT22;9531;52.030;4.380;2023-03-09T01:27:56;1.70;99.90
18807;DHT22;9531;52.030;4.380;2023-03-09T01:30:23;1.70;99.90
18807;DHT22;9531;52.030;4.380;2023-03-09T01:32:50;1.70;99.90
18807;DHT22;9531;52.030;4.380;2023-03-09T01:35:17;1.70;99.90
18807;DHT22;9531;52.030;4.380;2023-03-09T01:37:44;1.70;99.90
18807;DHT22;9531;52.030;4.380;2023-03-09T01:40:16;1.70;99.90
18807;DHT22;9531;52.030;4.380;2023-03-09T01:42:43;1.70;99.90
18807;DHT22;9531;52.030;4.380;2023-03-09T01:48:08;1.70;99.90
18807;DHT22;9531;52.030;4.380;2023-03-09T01:50:36;1.70;99.90
18807;DHT22;9531;52.030;4.380;2023-03-09T01:53:07;1.70;99.90
18807;DHT22;9531;52.030;4.380;2023-03-09T01:55:38;1.60;99.90
18807;DHT22;9531;52.030;4.380;2023-03-09T01:58:08;1.60;99.90
18807;DHT22;9531;52.030;4.380;2023-03-09T02:00:40;1.70;99.90
18807;DHT22;9531;52.030;4.380;2023-03-09T02:03:14;1.70;99.90
18807;DHT22;9531;52.030;4.380;2023-03-09T02:05:47;1.70;99.90
18807;DHT22;9531;52.030;4.380;2023-03-09T02:08:17;1.60;99.90
18807;DHT22;9531;52.030;4.380;2023-03-09T02:10:48;1.60;99.90
18807;DHT22;9531;52.030;4.380;2023-03-09T02:13:19;1.70;99.90
18807;DHT22;9531;52.030;4.380;2023-03-09T02:15:48;1.60;99.90
18807;DHT22;9531;52.030;4.380;2023-03-09T02:18:17;1.60;99.90
18807;DHT22;9531;52.030;4.380;2023-03-09T02:20:51;1.70;99.90
18807;DHT22;9531;52.030;4.380;2023-03-09T02:23:26;1.60;99.90
18807;DHT22;9531;52.030;4.380;2023-03-09T02:26:01;1.60;99.90
18807;DHT22;9531;52.030;4.380;2023-03-09T02:28:34;1.70;99.90
18807;DHT22;9531;52.030;4.380;2023-03-09T02:31:01;1.60;99.90
18807;DHT22;9531;52.030;4.380;2023-03-09T02:33:29;1.60;99.90
18807;DHT22;9531;52.030;4.380;2023-03-09T02:35:58;1.60;99.90
18807;DHT22;9531;52.030;4.380;2023-03-09T02:38:26;1.60;99.90
18807;DHT22;9531;52.030;4.380;2023-03-09T02:40:55;1.70;99.90
18807;DHT22;9531;52.030;4.380;2023-03-09T02:43:28;1.60;99.90
18807;DHT22;9531;52.030;4.380;2023-03-09T02:45:57;1.60;99.90
18807;DHT22;9531;52.030;4.380;2023-03-09T02:48:25;1.60;99.90
18807;DHT22;9531;52.030;4.380;2023-03-09T02:50:52;1.70;99.90
18807;DHT22;9531;52.030;4.380;2023-03-09T02:53:19;1.60;99.90
18807;DHT22;9531;52.030;4.380;2023-03-09T02:55:46;1.60;99.90
18807;DHT22;9531;52.030;4.380;2023-03-09T02:58:14;1.60;99.90
18807;DHT22;9531;52.030;4.380;2023-03-09T03:00:40;1.60;99.90
18807;DHT22;9531;52.030;4.380;2023-03-09T03:03:11;1.70;99.90
18807;DHT22;9531;52.030;4.380;2023-03-09T03:05:38;1.70;99.90
18807;DHT22;9531;52.030;4.380;2023-03-09T03:08:07;1.60;99.90
18807;DHT22;9531;52.030;4.380;2023-03-09T03:10:34;1.60;99.90
18807;DHT22;9531;52.030;4.380;2023-03-09T03:13:02;1.60;99.90
18807;DHT22;9531;52.030;4.380;2023-03-09T03:15:29;1.70;99.90
18807;DHT22;9531;52.030;4.380;2023-03-09T03:17:56;1.60;99.90
18807;DHT22;9531;52.030;4.380;2023-03-09T03:20:26;1.60;99.90
18807;DHT22;9531;52.030;4.380;2023-03-09T03:22:59;1.70;99.90
18807;DHT22;9531;52.030;4.380;2023-03-09T03:25:34;1.60;99.90
18807;DHT22;9531;52.030;4.380;2023-03-09T03:28:02;1.70;99.90
18807;DHT22;9531;52.030;4.380;2023-03-09T03:30:29;1.60;99.90
18807;DHT22;9531;52.030;4.380;2023-03-09T03:32:59;1.60;99.90
18807;DHT22;9531;52.030;4.380;2023-03-09T03:35:27;1.70;99.90
18807;DHT22;9531;52.030;4.380;2023-03-09T03:37:54;1.70;99.90
18807;DHT22;9531;52.030;4.380;2023-03-09T03:40:24;1.60;99.90
18807;DHT22;9531;52.030;4.380;2023-03-09T03:42:51;1.60;99.90
18807;DHT22;9531;52.030;4.380;2023-03-09T03:45:22;1.70;99.90
18807;DHT22;9531;52.030;4.380;2023-03-09T03:47:51;1.60;99.90
18807;DHT22;9531;52.030;4.380;2023-03-09T03:50:18;1.60;99.90
18807;DHT22;9531;52.030;4.380;2023-03-09T03:52:47;1.70;99.90
18807;DHT22;9531;52.030;4.380;2023-03-09T03:55:20;1.60;99.90
18807;DHT22;9531;52.030;4.380;2023-03-09T03:57:49;1.60;99.90
18807;DHT22;9531;52.030;4.380;2023-03-09T04:00:18;1.70;99.90
18807;DHT22;9531;52.030;4.380;2023-03-09T04:02:46;1.70;99.90
18807;DHT22;9531;52.030;4.380;2023-03-09T04:05:13;1.70;99.90
18807;DHT22;9531;52.030;4.380;2023-03-09T04:07:40;1.60;99.90
18807;DHT22;9531;52.030;4.380;2023-03-09T04:10:10;1.60;99.90
18807;DHT22;9531;52.030;4.380;2023-03-09T04:12:37;1.60;99.90
18807;DHT22;9531;52.030;4.380;2023-03-09T04:15:08;1.60;99.90
18807;DHT22;9531;52.030;4.380;2023-03-09T04:17:35;1.60;99.90
18807;DHT22;9531;52.030;4.380;2023-03-09T04:20:05;1.70;99.90
18807;DHT22;9531;52.030;4.380;2023-03-09T04:22:33;1.60;99.90
18807;DHT22;9531;52.030;4.380;2023-03-09T04:25:00;1.70;99.90
18807;DHT22;9531;52.030;4.380;2023-03-09T04:27:28;1.70;99.90
18807;DHT22;9531;52.030;4.380;2023-03-09T04:29:55;1.60;99.90
18807;DHT22;9531;52.030;4.380;2023-03-09T04:32:22;1.70;99.90
18807;DHT22;9531;52.030;4.380;2023-03-09T04:34:49;1.70;99.90
18807;DHT22;9531;52.030;4.380;2023-03-09T04:37:16;1.70;99.90
18807;DHT22;9531;52.030;4.380;2023-03-09T04:39:46;1.70;99.90
18807;DHT22;9531;52.030;4.380;2023-03-09T04:42:13;1.70;99.90
18807;DHT22;9531;52.030;4.380;2023-03-09T04:44:45;1.70;99.90
18807;DHT22;9531;52.030;4.380;2023-03-09T04:47:12;1.70;99.90
18807;DHT22;9531;52.030;4.380;2023-03-09T04:49:40;1.60;99.90
18807;DHT22;9531;52.030;4.380;2023-03-09T04:52:09;1.60;99.90
18807;DHT22;9531;52.030;4.380;2023-03-09T04:54:37;1.60;99.90
18807;DHT22;9531;52.030;4.380;2023-03-09T04:57:04;1.60;99.90
18807;DHT22;9531;52.030;4.380;2023-03-09T04:59:32;1.70;99.90
18807;DHT22;9531;52.030;4.380;2023-03-09T05:02:00;1.60;99.90
18807;DHT22;9531;52.030;4.380;2023-03-09T05:04:27;1.70;99.90
18807;DHT22;9531;52.030;4.380;2023-03-09T05:06:54;1.60;99.90
18807;DHT22;9531;52.030;4.380;2023-03-09T05:09:21;1.60;99.90
18807;DHT22;9531;52.030;4.380;2023-03-09T05:11:49;1.70;99.90
18807;DHT22;9531;52.030;4.380;2023-03-09T05:14:17;1.60;99.90
18807;DHT22;9531;52.030;4.380;2023-03-09T05:16:52;1.60;99.90
18807;DHT22;9531;52.030;4.380;2023-03-09T05:19:22;1.60;99.90
18807;DHT22;9531;52.030;4.380;2023-03-09T05:21:49;1.70;99.90
18807;DHT22;9531;52.030;4.380;2023-03-09T05:24:16;1.70;99.90
18807;DHT22;9531;52.030;4.380;2023-03-09T05:26:43;1.60;99.90
18807;DHT22;9531;52.030;4.380;2023-03-09T05:29:10;1.70;99.90
18807;DHT22;9531;52.030;4.380;2023-03-09T05:31:37;1.70;99.90
18807;DHT22;9531;52.030;4.380;2023-03-09T05:34:04;1.60;99.90
18807;DHT22;9531;52.030;4.380;2023-03-09T05:36:33;1.60;99.90
18807;DHT22;9531;52.030;4.380;2023-03-09T05:39:00;1.70;99.90
18807;DHT22;9531;52.030;4.380;2023-03-09T05:41:27;1.70;99.90
18807;DHT22;9531;52.030;4.380;2023-03-09T05:43:54;1.70;99.90
18807;DHT22;9531;52.030;4.380;2023-03-09T05:46:21;1.60;99.90
18807;DHT22;9531;52.030;4.380;2023-03-09T05:48:49;1.70;99.90
18807;DHT22;9531;52.030;4.380;2023-03-09T05:51:16;1.60;99.90
18807;DHT22;9531;52.030;4.380;2023-03-09T05:53:45;1.70;99.90
18807;DHT22;9531;52.030;4.380;2023-03-09T05:56:14;1.70;99.90
18807;DHT22;9531;52.030;4.380;2023-03-09T05:58:43;1.60;99.90
18807;DHT22;9531;52.030;4.380;2023-03-09T06:01:17;1.70;99.90
18807;DHT22;9531;52.030;4.380;2023-03-09T06:03:46;1.70;99.90
18807;DHT22;9531;52.030;4.380;2023-03-09T06:06:15;1.60;99.90
18807;DHT22;9531;52.030;4.380;2023-03-09T06:08:44;1.70;99.90
18807;DHT22;9531;52.030;4.380;2023-03-09T06:11:11;1.60;99.90
18807;DHT22;9531;52.030;4.380;2023-03-09T06:13:38;1.70;99.90
18807;DHT22;9531;52.030;4.380;2023-03-09T06:16:07;1.60;99.90
18807;DHT22;9531;52.030;4.380;2023-03-09T06:18:35;1.60;99.90
18807;DHT22;9531;52.030;4.380;2023-03-09T06:21:04;1.60;99.90
18807;DHT22;9531;52.030;4.380;2023-03-09T06:23:32;1.60;99.90
18807;DHT22;9531;52.030;4.380;2023-03-09T06:26:04;1.60;99.90
18807;DHT22;9531;52.030;4.380;2023-03-09T06:28:32;1.60;99.90
18807;DHT22;9531;52.030;4.380;2023-03-09T06:31:05;1.70;99.90
18807;DHT22;9531;52.030;4.380;2023-03-09T06:33:31;1.60;99.90
18807;DHT22;9531;52.030;4.380;2023-03-09T06:35:59;1.60;99.90
18807;DHT22;9531;52.030;4.380;2023-03-09T06:38:27;1.70;99.90
18807;DHT22;9531;52.030;4.380;2023-03-09T06:40:54;1.60;99.90
18807;DHT22;9531;52.030;4.380;2023-03-09T06:43:22;1.70;99.90
18807;DHT22;9531;52.030;4.380;2023-03-09T06:45:50;1.70;99.90
18807;DHT22;9531;52.030;4.380;2023-03-09T06:48:17;1.70;99.90
18807;DHT22;9531;52.030;4.380;2023-03-09T06:50:46;1.70;99.90
18807;DHT22;9531;52.030;4.380;2023-03-09T06:53:14;1.70;99.90
18807;DHT22;9531;52.030;4.380;2023-03-09T06:55:42;1.70;99.90
18807;DHT22;9531;52.030;4.380;2023-03-09T06:58:13;1.70;99.90
18807;DHT22;9531;52.030;4.380;2023-03-09T07:00:42;1.70;99.90
18807;DHT22;9531;52.030;4.380;2023-03-09T07:03:14;1.70;99.90
18807;DHT22;9531;52.030;4.380;2023-03-09T07:05:41;1.70;99.90
18807;DHT22;9531;52.030;4.380;2023-03-09T07:08:08;1.80;99.90
18807;DHT22;9531;52.030;4.380;2023-03-09T07:10:35;1.70;99.90
18807;DHT22;9531;52.030;4.380;2023-03-09T07:13:02;1.80;99.90
18807;DHT22;9531;52.030;4.380;2023-03-09T07:15:32;1.80;99.90
18807;DHT22;9531;52.030;4.380;2023-03-09T07:18:02;1.80;99.90
18807;DHT22;9531;52.030;4.380;2023-03-09T07:20:29;1.80;99.90
18807;DHT22;9531;52.030;4.380;2023-03-09T07:22:56;1.80;99.90
18807;DHT22;9531;52.030;4.380;2023-03-09T07:25:23;1.80;99.90
18807;DHT22;9531;52.030;4.380;2023-03-09T07:27:50;1.90;99.90
18807;DHT22;9531;52.030;4.380;2023-03-09T07:30:17;1.90;99.90
18807;DHT22;9531;52.030;4.380;2023-03-09T07:32:44;1.90;99.90
18807;DHT22;9531;52.030;4.380;2023-03-09T07:35:13;1.90;99.90
18807;DHT22;9531;52.030;4.380;2023-03-09T07:37:40;1.90;99.90
18807;DHT22;9531;52.030;4.380;2023-03-09T07:40:08;1.90;99.90
18807;DHT22;9531;52.030;4.380;2023-03-09T07:42:37;2.00;99.90
18807;DHT22;9531;52.030;4.380;2023-03-09T07:45:05;2.00;99.90
18807;DHT22;9531;52.030;4.380;2023-03-09T07:47:33;2.00;99.90
18807;DHT22;9531;52.030;4.380;2023-03-09T07:50:00;2.10;99.90
18807;DHT22;9531;52.030;4.380;2023-03-09T07:52:29;2.10;99.90
18807;DHT22;9531;52.030;4.380;2023-03-09T07:54:57;2.20;99.90
18807;DHT22;9531;52.030;4.380;2023-03-09T07:57:24;2.20;99.90
18807;DHT22;9531;52.030;4.380;2023-03-09T07:59:52;2.20;99.90
18807;DHT22;9531;52.030;4.380;2023-03-09T08:02:21;2.30;99.90
18807;DHT22;9531;52.030;4.380;2023-03-09T08:04:50;2.30;99.90
18807;DHT22;9531;52.030;4.380;2023-03-09T08:07:20;2.30;99.90
18807;DHT22;9531;52.030;4.380;2023-03-09T08:09:48;2.40;99.90
18807;DHT22;9531;52.030;4.380;2023-03-09T08:12:17;2.40;99.90
18807;DHT22;9531;52.030;4.380;2023-03-09T08:14:45;2.40;99.90
18807;DHT22;9531;52.030;4.380;2023-03-09T08:17:12;2.50;99.90
18807;DHT22;9531;52.030;4.380;2023-03-09T08:19:39;2.50;99.90
18807;DHT22;9531;52.030;4.380;2023-03-09T08:22:09;2.50;99.90
18807;DHT22;9531;52.030;4.380;2023-03-09T08:24:36;2.60;99.90
18807;DHT22;9531;52.030;4.380;2023-03-09T08:27:05;2.60;99.90
18807;DHT22;9531;52.030;4.380;2023-03-09T08:29:32;2.60;99.90
18807;DHT22;9531;52.030;4.380;2023-03-09T08:31:59;2.60;99.90
18807;DHT22;9531;52.030;4.380;2023-03-09T08:34:26;2.70;99.90
18807;DHT22;9531;52.030;4.380;2023-03-09T08:36:56;2.70;99.90
18807;DHT22;9531;52.030;4.380;2023-03-09T08:39:26;2.70;99.90
18807;DHT22;9531;52.030;4.380;2023-03-09T08:41:53;2.80;99.90
18807;DHT22;9531;52.030;4.380;2023-03-09T08:44:22;2.80;99.90
18807;DHT22;9531;52.030;4.380;2023-03-09T08:46:52;2.80;99.90
18807;DHT22;9531;52.030;4.380;2023-03-09T08:49:19;2.80;99.90
18807;DHT22;9531;52.030;4.380;2023-03-09T08:51:46;2.90;99.90
18807;DHT22;9531;52.030;4.380;2023-03-09T08:54:14;3.00;99.90
18807;DHT22;9531;52.030;4.380;2023-03-09T08:56:42;3.00;99.90
18807;DHT22;9531;52.030;4.380;2023-03-09T08:59:12;3.00;99.90
18807;DHT22;9531;52.030;4.380;2023-03-09T09:01:41;3.10;99.90
18807;DHT22;9531;52.030;4.380;2023-03-09T09:04:08;3.10;99.90
18807;DHT22;9531;52.030;4.380;2023-03-09T09:06:35;3.20;99.90
18807;DHT22;9531;52.030;4.380;2023-03-09T09:09:02;3.20;99.90
18807;DHT22;9531;52.030;4.380;2023-03-09T09:11:32;3.20;99.90
18807;DHT22;9531;52.030;4.380;2023-03-09T09:13:59;3.30;99.90
18807;DHT22;9531;52.030;4.380;2023-03-09T09:16:26;3.30;99.90
18807;DHT22;9531;52.030;4.380;2023-03-09T09:18:59;3.30;99.90
18807;DHT22;9531;52.030;4.380;2023-03-09T09:21:26;3.40;99.90
18807;DHT22;9531;52.030;4.380;2023-03-09T09:24:04;3.40;99.90
18807;DHT22;9531;52.030;4.380;2023-03-09T09:26:32;3.40;99.90
18807;DHT22;9531;52.030;4.380;2023-03-09T09:28:59;3.50;99.90
18807;DHT22;9531;52.030;4.380;2023-03-09T09:31:28;3.50;99.90
18807;DHT22;9531;52.030;4.380;2023-03-09T09:33:57;3.50;99.90
18807;DHT22;9531;52.030;4.380;2023-03-09T09:36:24;3.50;99.90
18807;DHT22;9531;52.030;4.380;2023-03-09T09:38:52;3.50;99.90
18807;DHT22;9531;52.030;4.380;2023-03-09T09:41:23;3.60;99.90
18807;DHT22;9531;52.030;4.380;2023-03-09T09:43:54;3.60;99.90
18807;DHT22;9531;52.030;4.380;2023-03-09T09:46:23;3.60;99.90
18807;DHT22;9531;52.030;4.380;2023-03-09T09:48:50;3.50;99.90
18807;DHT22;9531;52.030;4.380;2023-03-09T09:51:33;3.60;99.90
18807;DHT22;9531;52.030;4.380;2023-03-09T09:54:10;3.60;99.90
18807;DHT22;9531;52.030;4.380;2023-03-09T09:56:45;3.60;99.90
18807;DHT22;9531;52.030;4.380;2023-03-09T09:59:18;3.60;99.90
18807;DHT22;9531;52.030;4.380;2023-03-09T10:01:52;3.60;99.90
18807;DHT22;9531;52.030;4.380;2023-03-09T10:04:26;3.60;99.90
18807;DHT22;9531;52.030;4.380;2023-03-09T10:06:59;3.60;99.90
18807;DHT22;9531;52.030;4.380;2023-03-09T10:09:30;3.70;99.90
18807;DHT22;9531;52.030;4.380;2023-03-09T10:12:02;3.70;99.90
18807;DHT22;9531;52.030;4.380;2023-03-09T10:14:36;3.70;99.90
18807;DHT22;9531;52.030;4.380;2023-03-09T10:17:12;3.80;99.90
18807;DHT22;9531;52.030;4.380;2023-03-09T10:19:41;3.80;99.90
18807;DHT22;9531;52.030;4.380;2023-03-09T10:22:16;3.80;99.90
18807;DHT22;9531;52.030;4.380;2023-03-09T10:24:46;3.90;99.90
18807;DHT22;9531;52.030;4.380;2023-03-09T10:27:20;3.90;99.90
18807;DHT22;9531;52.030;4.380;2023-03-09T10:29:53;3.90;99.90
18807;DHT22;9531;52.030;4.380;2023-03-09T10:32:25;3.90;99.90
18807;DHT22;9531;52.030;4.380;2023-03-09T10:34:56;4.00;99.90
18807;DHT22;9531;52.030;4.380;2023-03-09T10:37:32;4.00;99.90
18807;DHT22;9531;52.030;4.380;2023-03-09T10:40:02;4.00;99.90
18807;DHT22;9531;52.030;4.380;2023-03-09T10:42:35;4.10;99.90
18807;DHT22;9531;52.030;4.380;2023-03-09T10:45:15;4.10;99.90
18807;DHT22;9531;52.030;4.380;2023-03-09T10:47:53;4.10;99.90
18807;DHT22;9531;52.030;4.380;2023-03-09T10:50:21;4.20;99.90
18807;DHT22;9531;52.030;4.380;2023-03-09T10:52:50;4.10;99.90
18807;DHT22;9531;52.030;4.380;2023-03-09T10:55:44;4.10;99.90
18807;DHT22;9531;52.030;4.380;2023-03-09T10:58:17;4.10;99.90
18807;DHT22;9531;52.030;4.380;2023-03-09T11:00:57;4.10;99.90
18807;DHT22;9531;52.030;4.380;2023-03-09T11:03:29;4.10;99.90
18807;DHT22;9531;52.030;4.380;2023-03-09T11:06:09;4.10;99.90
18807;DHT22;9531;52.030;4.380;2023-03-09T11:08:40;4.10;99.90
18807;DHT22;9531;52.030;4.380;2023-03-09T11:11:17;4.10;99.90
18807;DHT22;9531;52.030;4.380;2023-03-09T11:13:46;4.00;99.90
18807;DHT22;9531;52.030;4.380;2023-03-09T11:16:15;4.00;99.90
18807;DHT22;9531;52.030;4.380;2023-03-09T11:18:44;4.00;99.90
18807;DHT22;9531;52.030;4.380;2023-03-09T11:21:20;3.90;99.90
18807;DHT22;9531;52.030;4.380;2023-03-09T11:23:51;3.90;99.90
18807;DHT22;9531;52.030;4.380;2023-03-09T11:26:23;3.90;99.90
18807;DHT22;9531;52.030;4.380;2023-03-09T11:28:58;3.90;99.90
18807;DHT22;9531;52.030;4.380;2023-03-09T11:31:31;3.90;99.90
18807;DHT22;9531;52.030;4.380;2023-03-09T11:34:00;3.90;99.90
18807;DHT22;9531;52.030;4.380;2023-03-09T11:36:33;3.90;99.90
18807;DHT22;9531;52.030;4.380;2023-03-09T11:39:05;3.90;99.90
18807;DHT22;9531;52.030;4.380;2023-03-09T11:41:41;3.90;99.90
18807;DHT22;9531;52.030;4.380;2023-03-09T11:44:15;3.90;99.90
18807;DHT22;9531;52.030;4.380;2023-03-09T11:46:44;3.90;99.90
18807;DHT22;9531;52.030;4.380;2023-03-09T11:49:13;3.90;99.90
18807;DHT22;9531;52.030;4.380;2023-03-09T11:51:48;3.90;99.90
18807;DHT22;9531;52.030;4.380;2023-03-09T11:54:22;3.90;99.90
18807;DHT22;9531;52.030;4.380;2023-03-09T11:56:52;3.90;99.90
18807;DHT22;9531;52.030;4.380;2023-03-09T11:59:23;3.90;99.90
18807;DHT22;9531;52.030;4.380;2023-03-09T12:01:58;3.80;99.90
18807;DHT22;9531;52.030;4.380;2023-03-09T12:04:27;3.80;99.90
18807;DHT22;9531;52.030;4.380;2023-03-09T12:06:56;3.80;99.90
18807;DHT22;9531;52.030;4.380;2023-03-09T12:09:42;3.80;99.90
18807;DHT22;9531;52.030;4.380;2023-03-09T12:12:22;3.80;99.90
18807;DHT22;9531;52.030;4.380;2023-03-09T12:14:52;3.80;99.90
18807;DHT22;9531;52.030;4.380;2023-03-09T12:17:24;3.70;99.90
18807;DHT22;9531;52.030;4.380;2023-03-09T12:19:56;3.70;99.90
18807;DHT22;9531;52.030;4.380;2023-03-09T12:22:28;3.70;99.90
18807;DHT22;9531;52.030;4.380;2023-03-09T12:24:59;3.70;99.90
18807;DHT22;9531;52.030;4.380;2023-03-09T12:27:29;3.70;99.90
18807;DHT22;9531;52.030;4.380;2023-03-09T12:30:08;3.70;99.90
18807;DHT22;9531;52.030;4.380;2023-03-09T12:32:42;3.70;99.90
18807;DHT22;9531;52.030;4.380;2023-03-09T12:38:21;3.60;99.90
18807;DHT22;9531;52.030;4.380;2023-03-09T12:40:50;3.60;99.90
18807;DHT22;9531;52.030;4.380;2023-03-09T12:43:43;3.60;99.90
18807;DHT22;9531;52.030;4.380;2023-03-09T12:49:24;3.70;99.90
18807;DHT22;9531;52.030;4.380;2023-03-09T12:52:15;3.70;99.90
18807;DHT22;9531;52.030;4.380;2023-03-09T12:54:51;3.70;99.90
18807;DHT22;9531;52.030;4.380;2023-03-09T12:57:21;3.70;99.90
18807;DHT22;9531;52.030;4.380;2023-03-09T12:59:48;3.70;99.90
18807;DHT22;9531;52.030;4.380;2023-03-09T13:02:33;3.70;99.90
18807;DHT22;9531;52.030;4.380;2023-03-09T13:05:30;3.70;99.90
18807;DHT22;9531;52.030;4.380;2023-03-09T13:08:01;3.70;99.90
18807;DHT22;9531;52.030;4.380;2023-03-09T13:10:33;3.70;99.90
18807;DHT22;9531;52.030;4.380;2023-03-09T13:13:34;3.70;99.90
18807;DHT22;9531;52.030;4.380;2023-03-09T13:19:48;3.60;99.90
18807;DHT22;9531;52.030;4.380;2023-03-09T13:22:19;3.60;99.90
18807;DHT22;9531;52.030;4.380;2023-03-09T13:24:47;3.60;99.90
18807;DHT22;9531;52.030;4.380;2023-03-09T13:27:20;3.50;99.90
18807;DHT22;9531;52.030;4.380;2023-03-09T13:29:53;3.50;99.90
18807;DHT22;9531;52.030;4.380;2023-03-09T13:32:26;3.50;99.90
18807;DHT22;9531;52.030;4.380;2023-03-09T13:34:56;3.50;99.90
18807;DHT22;9531;52.030;4.380;2023-03-09T13:37:27;3.50;99.90
18807;DHT22;9531;52.030;4.380;2023-03-09T13:39:59;3.50;99.90
18807;DHT22;9531;52.030;4.380;2023-03-09T13:42:31;3.40;99.90
18807;DHT22;9531;52.030;4.380;2023-03-09T13:45:00;3.40;99.90
18807;DHT22;9531;52.030;4.380;2023-03-09T13:47:30;3.40;99.90
18807;DHT22;9531;52.030;4.380;2023-03-09T13:49:58;3.40;99.90
18807;DHT22;9531;52.030;4.380;2023-03-09T13:52:27;3.40;99.90
18807;DHT22;9531;52.030;4.380;2023-03-09T13:54:55;3.40;99.90
18807;DHT22;9531;52.030;4.380;2023-03-09T13:57:24;3.40;99.90
18807;DHT22;9531;52.030;4.380;2023-03-09T13:59:56;3.40;99.90
18807;DHT22;9531;52.030;4.380;2023-03-09T14:02:26;3.40;99.90
18807;DHT22;9531;52.030;4.380;2023-03-09T14:05:12;3.40;99.90
18807;DHT22;9531;52.030;4.380;2023-03-09T14:07:46;3.50;99.90
18807;DHT22;9531;52.030;4.380;2023-03-09T14:10:21;3.50;99.90
18807;DHT22;9531;52.030;4.380;2023-03-09T14:12:53;3.50;99.90
18807;DHT22;9531;52.030;4.380;2023-03-09T14:15:21;3.50;99.90
18807;DHT22;9531;52.030;4.380;2023-03-09T14:17:51;3.50;99.90
18807;DHT22;9531;52.030;4.380;2023-03-09T14:20:20;3.50;99.90
18807;DHT22;9531;52.030;4.380;2023-03-09T14:22:48;3.50;99.90
18807;DHT22;9531;52.030;4.380;2023-03-09T14:25:30;3.60;99.90
18807;DHT22;9531;52.030;4.380;2023-03-09T14:27:57;3.60;99.90
18807;DHT22;9531;52.030;4.380;2023-03-09T14:30:32;3.60;99.90
18807;DHT22;9531;52.030;4.380;2023-03-09T14:33:22;3.60;99.90
18807;DHT22;9531;52.030;4.380;2023-03-09T14:36:04;3.60;99.90
18807;DHT22;9531;52.030;4.380;2023-03-09T14:38:32;3.60;99.90
18807;DHT22;9531;52.030;4.380;2023-03-09T14:41:00;3.60;99.90
18807;DHT22;9531;52.030;4.380;2023-03-09T14:43:31;3.60;99.90
18807;DHT22;9531;52.030;4.380;2023-03-09T14:46:08;3.60;99.90
18807;DHT22;9531;52.030;4.380;2023-03-09T14:48:37;3.70;99.90
18807;DHT22;9531;52.030;4.380;2023-03-09T14:51:11;3.60;99.90
18807;DHT22;9531;52.030;4.380;2023-03-09T14:53:49;3.60;99.90
18807;DHT22;9531;52.030;4.380;2023-03-09T14:56:16;3.60;99.90
18807;DHT22;9531;52.030;4.380;2023-03-09T14:58:44;3.60;99.90
18807;DHT22;9531;52.030;4.380;2023-03-09T15:01:11;3.60;99.90
18807;DHT22;9531;52.030;4.380;2023-03-09T15:03:39;3.60;99.90
18807;DHT22;9531;52.030;4.380;2023-03-09T15:06:06;3.60;99.90
18807;DHT22;9531;52.030;4.380;2023-03-09T15:08:33;3.60;99.90
18807;DHT22;9531;52.030;4.380;2023-03-09T15:11:01;3.60;99.90
18807;DHT22;9531;52.030;4.380;2023-03-09T15:13:29;3.50;99.90
18807;DHT22;9531;52.030;4.380;2023-03-09T15:15:56;3.50;99.90
18807;DHT22;9531;52.030;4.380;2023-03-09T15:18:23;3.50;99.90
18807;DHT22;9531;52.030;4.380;2023-03-09T15:20:51;3.50;99.90
18807;DHT22;9531;52.030;4.380;2023-03-09T15:23:18;3.50;99.90
18807;DHT22;9531;52.030;4.380;2023-03-09T15:25:45;3.50;99.90
18807;DHT22;9531;52.030;4.380;2023-03-09T15:28:13;3.50;99.90
18807;DHT22;9531;52.030;4.380;2023-03-09T15:30:40;3.50;99.90
18807;DHT22;9531;52.030;4.380;2023-03-09T15:33:09;3.50;99.90
18807;DHT22;9531;52.030;4.380;2023-03-09T15:35:40;3.50;99.90
18807;DHT22;9531;52.030;4.380;2023-03-09T15:38:09;3.50;99.90
18807;DHT22;9531;52.030;4.380;2023-03-09T15:40:39;3.40;99.90
18807;DHT22;9531;52.030;4.380;2023-03-09T15:43:07;3.40;99.90
18807;DHT22;9531;52.030;4.380;2023-03-09T15:45:39;3.40;99.90
18807;DHT22;9531;52.030;4.380;2023-03-09T15:48:07;3.40;99.90
18807;DHT22;9531;52.030;4.380;2023-03-09T15:50:34;3.40;99.90
18807;DHT22;9531;52.030;4.380;2023-03-09T15:53:05;3.40;99.90
18807;DHT22;9531;52.030;4.380;2023-03-09T15:55:33;3.40;99.90
18807;DHT22;9531;52.030;4.380;2023-03-09T15:58:03;3.30;99.90
18807;DHT22;9531;52.030;4.380;2023-03-09T16:00:31;3.30;99.90
18807;DHT22;9531;52.030;4.380;2023-03-09T16:02:59;3.30;99.90
18807;DHT22;9531;52.030;4.380;2023-03-09T16:05:26;3.40;99.90
18807;DHT22;9531;52.030;4.380;2023-03-09T16:07:55;3.30;99.90
18807;DHT22;9531;52.030;4.380;2023-03-09T16:10:22;3.30;99.90
18807;DHT22;9531;52.030;4.380;2023-03-09T16:13:00;3.30;99.90
18807;DHT22;9531;52.030;4.380;2023-03-09T16:15:27;3.30;99.90
18807;DHT22;9531;52.030;4.380;2023-03-09T16:17:54;3.30;99.90
18807;DHT22;9531;52.030;4.380;2023-03-09T16:20:21;3.30;99.90
18807;DHT22;9531;52.030;4.380;2023-03-09T16:22:49;3.30;99.90
18807;DHT22;9531;52.030;4.380;2023-03-09T16:25:17;3.30;99.90
18807;DHT22;9531;52.030;4.380;2023-03-09T16:27:45;3.30;99.90
18807;DHT22;9531;52.030;4.380;2023-03-09T16:30:14;3.30;99.90
18807;DHT22;9531;52.030;4.380;2023-03-09T16:32:43;3.30;99.90